Time;durP1;ratioP1;P1;durP2;ratioP2;P2;SDS_P1;SDS_P2;PMS_P1;PMS_P2;Temp;Humidity;BMP_temperature;BMP_pressure;BME280_temperature;BME280_humidity;BME280_pressure;Samples;Min_cycle;Max_cycle;Signal;HPM_P1;HPM_P2
2021/05/16 00:01:47;;;;;;;1.00;1.00;;;;;;;;;;5080655;28;20028;-81
2021/05/16 00:04:13;;;;;;;1.60;1.20;;;;;;;;;;5084433;28;20037;-81
2021/05/16 00:06:39;;;;;;;1.60;1.30;;;;;;;;;;5070806;28;20115;-80
2021/05/16 00:09:05;;;;;;;1.30;1.20;;;;;;;;;;5083204;28;20036;-81
2021/05/16 00:11:31;;;;;;;1.20;1.20;;;;;;;;;;5070534;28;20037;-81
2021/05/16 00:13:57;;;;;;;1.27;1.20;;;;;;;;;;5070809;28;20021;-80
2021/05/16 00:16:23;;;;;;;1.20;1.20;;;;;;;;;;5088712;28;20024;-80
2021/05/16 00:18:49;;;;;;;1.45;1.35;;;;;;;;;;5083949;28;20074;-81
2021/05/16 00:21:15;;;;;;;1.30;1.30;;;;;;;;;;5070650;28;20064;-81
2021/05/16 00:23:41;;;;;;;1.40;1.30;;;;;;;;;;5071735;28;20471;-81
2021/05/16 00:26:08;;;;;;;1.40;1.30;;;;;;;;;;5082219;28;20031;-81
2021/05/16 00:28:34;;;;;;;2.40;1.20;;;;;;;;;;5087444;28;20409;-82
2021/05/16 00:31:00;;;;;;;1.10;1.10;;;;;;;;;;5089324;28;20554;-82
2021/05/16 00:33:26;;;;;;;1.10;1.10;;;;;;;;;;5089558;28;20024;-82
2021/05/16 00:35:52;;;;;;;1.50;1.40;;;;;;;;;;5076882;28;20036;-80
2021/05/16 00:38:18;;;;;;;1.23;1.20;;;;;;;;;;5075844;28;20036;-82
2021/05/16 00:40:44;;;;;;;1.30;1.20;;;;;;;;;;5074399;28;20386;-80
2021/05/16 00:43:12;;;;;;;1.40;1.30;;;;;;;;;;5078683;28;20044;-80
2021/05/16 00:45:38;;;;;;;1.00;1.00;;;;;;;;;;5075426;28;20020;-81
2021/05/16 00:48:05;;;;;;;1.30;1.30;;;;;;;;;;5074044;28;20399;-82
2021/05/16 00:50:33;;;;;;;2.28;1.33;;;;;;;;;;5085569;28;20070;-82
2021/05/16 00:52:59;;;;;;;1.27;1.17;;;;;;;;;;5083124;28;20495;-82
2021/05/16 00:55:26;;;;;;;2.53;1.40;;;;;;;;;;5074258;28;20119;-82
2021/05/16 00:57:52;;;;;;;1.33;1.20;;;;;;;;;;5074615;28;20099;-82
2021/05/16 01:00:19;;;;;;;40.28;4.00;;;;;;;;;;5074051;28;20112;-83
2021/05/16 01:02:45;;;;;;;6.20;1.55;;;;;;;;;;5089100;28;20127;-83
2021/05/16 01:05:13;;;;;;;1.30;1.08;;;;;;;;;;5084293;28;20107;-83
2021/05/16 01:07:40;;;;;;;1.38;1.30;;;;;;;;;;5075764;28;20042;-83
2021/05/16 01:10:08;;;;;;;1.80;1.40;;;;;;;;;;5093811;28;20062;-82
2021/05/16 01:12:41;;;;;;;4.43;1.20;;;;;;;;;;5093946;28;20086;-82
2021/05/16 01:15:08;;;;;;;1.27;1.27;;;;;;;;;;5088582;28;20024;-82
2021/05/16 01:17:34;;;;;;;;;;;;;;;;;;5094394;28;20028;-82
2021/05/16 01:20:00;;;;;;;1.67;1.42;;;;;;;;;;5089909;28;19912;-83
2021/05/16 01:22:26;;;;;;;1.58;1.20;;;;;;;;;;5078207;28;20050;-82
2021/05/16 01:24:52;;;;;;;1.37;1.20;;;;;;;;;;5077626;28;20226;-82
2021/05/16 01:27:19;;;;;;;1.53;1.00;;;;;;;;;;5088862;28;20364;-81
2021/05/16 01:29:45;;;;;;;1.35;1.10;;;;;;;;;;5073666;28;20040;-82
2021/05/16 01:32:12;;;;;;;13.27;2.70;;;;;;;;;;5074143;28;20471;-83
2021/05/16 01:34:41;;;;;;;2.70;1.40;;;;;;;;;;5075448;28;20040;-84
2021/05/16 01:37:09;;;;;;;2.05;1.35;;;;;;;;;;5093572;28;20028;-84
2021/05/16 01:39:35;;;;;;;1.00;0.90;;;;;;;;;;5089416;28;20028;-83
2021/05/16 01:42:01;;;;;;;1.10;1.10;;;;;;;;;;5085463;28;20486;-84
2021/05/16 01:44:27;;;;;;;1.90;1.20;;;;;;;;;;5073203;28;20049;-82
2021/05/16 01:46:54;;;;;;;4.73;1.87;;;;;;;;;;5089837;28;20040;-81
2021/05/16 01:49:20;;;;;;;2.28;1.63;;;;;;;;;;5092169;28;20040;-81
2021/05/16 01:51:46;;;;;;;1.57;1.30;;;;;;;;;;5076694;28;20530;-80
2021/05/16 01:54:12;;;;;;;10.83;1.70;;;;;;;;;;5072880;28;20020;-82
2021/05/16 01:56:38;;;;;;;1.75;1.40;;;;;;;;;;5088785;28;20434;-84
2021/05/16 01:59:04;;;;;;;1.90;1.40;;;;;;;;;;5080701;28;20051;-82
2021/05/16 02:01:30;;;;;;;1.50;1.40;;;;;;;;;;5074716;28;20033;-82
2021/05/16 02:03:57;;;;;;;1.30;1.20;;;;;;;;;;5073159;28;20017;-83
2021/05/16 02:06:23;;;;;;;;;;;;;;;;;;5073124;28;20196;-84
2021/05/16 02:08:49;;;;;;;2.03;1.13;;;;;;;;;;5081884;28;19908;-83
2021/05/16 02:11:15;;;;;;;2.97;1.23;;;;;;;;;;5080801;28;20040;-81
2021/05/16 02:13:42;;;;;;;1.65;1.30;;;;;;;;;;5073300;28;20021;-80
2021/05/16 02:16:09;;;;;;;1.00;1.00;;;;;;;;;;5090609;28;20044;-80
2021/05/16 02:18:35;;;;;;;2.50;1.48;;;;;;;;;;5092253;28;20032;-83
2021/05/16 02:21:02;;;;;;;1.37;1.27;;;;;;;;;;5082262;28;20027;-82
2021/05/16 02:23:28;;;;;;;2.97;1.23;;;;;;;;;;5076291;28;20086;-82
2021/05/16 02:25:54;;;;;;;2.30;1.40;;;;;;;;;;5074285;28;20052;-83
2021/05/16 02:28:20;;;;;;;1.43;1.20;;;;;;;;;;5091052;28;20040;-83
2021/05/16 02:30:46;;;;;;;1.30;1.15;;;;;;;;;;5086278;28;20036;-84
2021/05/16 02:33:13;;;;;;;1.65;1.45;;;;;;;;;;5092156;28;20028;-81
2021/05/16 02:35:39;;;;;;;1.30;1.20;;;;;;;;;;5092514;28;20359;-81
2021/05/16 02:38:05;;;;;;;1.37;1.27;;;;;;;;;;5070575;28;20074;-82
2021/05/16 02:40:31;;;;;;;1.10;1.10;;;;;;;;;;5076721;28;20273;-81
2021/05/16 02:42:58;;;;;;;1.77;1.23;;;;;;;;;;5090102;28;20024;-82
2021/05/16 02:45:24;;;;;;;1.42;1.30;;;;;;;;;;5072442;28;20043;-82
2021/05/16 02:47:50;;;;;;;1.43;1.33;;;;;;;;;;5079261;28;20093;-82
2021/05/16 02:50:16;;;;;;;1.20;1.20;;;;;;;;;;5090565;28;20701;-82
2021/05/16 02:52:42;;;;;;;1.80;1.30;;;;;;;;;;5071669;28;20039;-82
2021/05/16 02:55:09;;;;;;;1.67;1.27;;;;;;;;;;5071374;28;20072;-81
2021/05/16 02:57:35;;;;;;;1.98;1.40;;;;;;;;;;5072833;28;20037;-81
2021/05/16 03:00:01;;;;;;;1.25;1.23;;;;;;;;;;5071988;28;20031;-82
2021/05/16 03:02:27;;;;;;;4.87;1.47;;;;;;;;;;5077281;28;20040;-82
2021/05/16 03:04:53;;;;;;;1.20;1.10;;;;;;;;;;5092463;28;20042;-82
2021/05/16 03:07:19;;;;;;;1.20;1.10;;;;;;;;;;5074767;28;20111;-82
2021/05/16 03:09:45;;;;;;;1.33;1.00;;;;;;;;;;5071582;28;20037;-81
2021/05/16 03:12:11;;;;;;;1.40;1.30;;;;;;;;;;5072780;28;20040;-81
2021/05/16 03:14:37;;;;;;;2.42;1.25;;;;;;;;;;5071857;28;20043;-81
2021/05/16 03:17:03;;;;;;;3.40;1.33;;;;;;;;;;5072265;28;20060;-79
2021/05/16 03:19:30;;;;;;;1.00;1.00;;;;;;;;;;5076400;28;20490;-82
2021/05/16 03:21:56;;;;;;;1.25;1.15;;;;;;;;;;5079146;28;20029;-81
2021/05/16 03:24:22;;;;;;;1.30;1.20;;;;;;;;;;5071505;28;20020;-81
2021/05/16 03:26:48;;;;;;;1.20;1.10;;;;;;;;;;5070616;28;20032;-80
2021/05/16 03:29:14;;;;;;;1.45;1.33;;;;;;;;;;5072014;28;20036;-82
2021/05/16 03:31:40;;;;;;;1.97;1.30;;;;;;;;;;5078803;28;20075;-82
2021/05/16 03:34:07;;;;;;;1.38;1.27;;;;;;;;;;5090291;28;20020;-82
2021/05/16 03:36:33;;;;;;;;;;;;;;;;;;5082752;28;20028;-82
2021/05/16 03:38:59;;;;;;;9.00;1.30;;;;;;;;;;5079317;28;19922;-82
2021/05/16 03:41:25;;;;;;;1.37;1.20;;;;;;;;;;5086733;28;20425;-85
2021/05/16 03:43:51;;;;;;;1.55;1.30;;;;;;;;;;5085885;28;20486;-83
2021/05/16 03:46:18;;;;;;;3.95;1.50;;;;;;;;;;5078009;28;20721;-82
2021/05/16 03:48:44;;;;;;;1.48;1.30;;;;;;;;;;5077265;28;20075;-82
2021/05/16 03:51:11;;;;;;;1.10;1.00;;;;;;;;;;5085474;28;20117;-82
2021/05/16 03:53:38;;;;;;;2.15;1.30;;;;;;;;;;5078962;28;20047;-82
2021/05/16 03:56:05;;;;;;;1.23;1.20;;;;;;;;;;5076280;28;20027;-83
2021/05/16 03:58:31;;;;;;;1.88;1.30;;;;;;;;;;5079194;28;20028;-82
2021/05/16 04:00:57;;;;;;;1.30;1.20;;;;;;;;;;5082261;28;20050;-83
2021/05/16 04:03:23;;;;;;;1.00;1.00;;;;;;;;;;5070526;28;20056;-81
2021/05/16 04:05:49;;;;;;;0.83;0.80;;;;;;;;;;5087543;28;20477;-81
2021/05/16 04:08:15;;;;;;;0.90;0.90;;;;;;;;;;5083979;28;20274;-82
2021/05/16 04:10:41;;;;;;;0.85;0.85;;;;;;;;;;5078482;28;20046;-82
2021/05/16 04:13:07;;;;;;;1.10;0.90;;;;;;;;;;5088711;28;20403;-81
2021/05/16 04:15:33;;;;;;;1.52;1.00;;;;;;;;;;5070396;28;20075;-81
2021/05/16 04:17:59;;;;;;;2.00;1.20;;;;;;;;;;5070553;28;20046;-82
2021/05/16 04:20:25;;;;;;;1.10;1.10;;;;;;;;;;5072824;28;20112;-81
2021/05/16 04:22:51;;;;;;;0.82;0.80;;;;;;;;;;5081096;28;20074;-82
2021/05/16 04:25:17;;;;;;;1.33;1.10;;;;;;;;;;5084734;28;20025;-83
2021/05/16 04:27:43;;;;;;;0.93;0.93;;;;;;;;;;5083029;28;20525;-82
2021/05/16 04:30:09;;;;;;;1.23;1.00;;;;;;;;;;5076993;28;20035;-81
2021/05/16 04:32:35;;;;;;;1.20;1.10;;;;;;;;;;5076830;28;20058;-82
2021/05/16 04:35:01;;;;;;;1.17;1.08;;;;;;;;;;5080328;28;20036;-83
2021/05/16 04:37:27;;;;;;;1.63;1.10;;;;;;;;;;5086704;28;20075;-81
2021/05/16 04:39:54;;;;;;;1.20;1.10;;;;;;;;;;5081230;28;20036;-83
2021/05/16 04:42:20;;;;;;;1.00;1.00;;;;;;;;;;5085177;28;20045;-82
2021/05/16 04:44:46;;;;;;;1.48;0.95;;;;;;;;;;5069662;28;20351;-83
2021/05/16 04:47:12;;;;;;;1.02;1.02;;;;;;;;;;5077338;28;20053;-83
2021/05/16 04:49:38;;;;;;;1.65;1.10;;;;;;;;;;5083542;28;20032;-83
2021/05/16 04:52:04;;;;;;;2.25;1.10;;;;;;;;;;5080355;28;20062;-84
2021/05/16 04:54:30;;;;;;;1.38;1.10;;;;;;;;;;5074126;28;20039;-82
2021/05/16 04:56:56;;;;;;;1.30;1.10;;;;;;;;;;5081685;28;20046;-83
2021/05/16 04:59:22;;;;;;;1.25;1.00;;;;;;;;;;5087771;28;20027;-84
2021/05/16 05:01:48;;;;;;;1.48;1.02;;;;;;;;;;5074887;28;20479;-82
2021/05/16 05:04:14;;;;;;;1.67;0.90;;;;;;;;;;5071297;28;20067;-83
2021/05/16 05:06:41;;;;;;;0.90;0.88;;;;;;;;;;5080040;28;20058;-83
2021/05/16 05:09:07;;;;;;;1.98;1.00;;;;;;;;;;5073040;28;20090;-83
2021/05/16 05:11:34;;;;;;;1.05;0.98;;;;;;;;;;5081433;28;20419;-85
2021/05/16 05:14:00;;;;;;;1.25;0.98;;;;;;;;;;5068408;28;20402;-84
2021/05/16 05:16:26;;;;;;;0.90;0.90;;;;;;;;;;5071681;28;20028;-82
2021/05/16 05:18:51;;;;;;;2.10;0.93;;;;;;;;;;5078276;28;20034;-82
2021/05/16 05:21:18;;;;;;;0.98;0.98;;;;;;;;;;5075064;28;20521;-82
2021/05/16 05:23:44;;;;;;;1.65;0.98;;;;;;;;;;5074412;28;20068;-82
2021/05/16 05:26:10;;;;;;;0.80;0.80;;;;;;;;;;5073137;28;20067;-82
2021/05/16 05:28:36;;;;;;;1.00;1.00;;;;;;;;;;5075706;28;20052;-80
2021/05/16 05:31:03;;;;;;;1.50;0.93;;;;;;;;;;5081365;28;20516;-80
2021/05/16 05:33:29;;;;;;;0.90;0.90;;;;;;;;;;5090087;28;20132;-81
2021/05/16 05:35:55;;;;;;;1.45;1.00;;;;;;;;;;5073155;28;20103;-81
2021/05/16 05:38:21;;;;;;;1.08;0.90;;;;;;;;;;5090383;28;20035;-79
2021/05/16 05:40:47;;;;;;;1.25;1.00;;;;;;;;;;5078694;28;20493;-83
2021/05/16 05:43:13;;;;;;;0.75;0.75;;;;;;;;;;5073708;28;20434;-79
2021/05/16 05:45:39;;;;;;;1.17;1.00;;;;;;;;;;5084736;28;20020;-82
2021/05/16 05:48:06;;;;;;;2.47;1.48;;;;;;;;;;5077764;28;20036;-83
2021/05/16 05:50:32;;;;;;;4.45;2.00;;;;;;;;;;5075816;28;20036;-83
2021/05/16 05:53:02;;;;;;;2.30;1.40;;;;;;;;;;5083737;28;20026;-84
2021/05/16 05:55:28;;;;;;;4.47;1.42;;;;;;;;;;5092071;28;20067;-84
2021/05/16 05:57:54;;;;;;;2.47;1.50;;;;;;;;;;5092747;28;20024;-86
2021/05/16 06:00:20;;;;;;;2.67;1.50;;;;;;;;;;5088032;28;20171;-81
2021/05/16 06:02:46;;;;;;;3.17;1.48;;;;;;;;;;5089025;28;20467;-81
2021/05/16 06:05:12;;;;;;;3.67;1.50;;;;;;;;;;5072234;28;20074;-83
2021/05/16 06:07:38;;;;;;;2.30;1.50;;;;;;;;;;5080436;28;20261;-81
2021/05/16 06:10:05;;;;;;;1.90;1.30;;;;;;;;;;5073379;28;20294;-82
2021/05/16 06:12:31;;;;;;;3.20;1.77;;;;;;;;;;5080756;28;20041;-82
2021/05/16 06:14:59;;;;;;;3.38;1.42;;;;;;;;;;5081641;28;20048;-81
2021/05/16 06:17:25;;;;;;;6.60;2.50;;;;;;;;;;5081120;28;20161;-81
2021/05/16 06:19:51;;;;;;;6.60;2.33;;;;;;;;;;5084987;28;20456;-82
2021/05/16 06:22:17;;;;;;;8.87;3.10;;;;;;;;;;5092444;28;20035;-82
2021/05/16 06:24:43;;;;;;;9.90;3.00;;;;;;;;;;5080685;28;20032;-82
2021/05/16 06:27:09;;;;;;;8.23;3.10;;;;;;;;;;5072479;28;20314;-82
2021/05/16 06:29:35;;;;;;;9.83;3.00;;;;;;;;;;5074496;28;20036;-81
2021/05/16 06:32:01;;;;;;;14.90;3.00;;;;;;;;;;5081886;28;20470;-78
2021/05/16 06:34:27;;;;;;;6.07;2.20;;;;;;;;;;5074763;28;20632;-79
2021/05/16 06:36:54;;;;;;;3.57;1.63;;;;;;;;;;5083783;28;20649;-82
2021/05/16 06:39:21;;;;;;;8.60;1.90;;;;;;;;;;5080650;28;20040;-80
2021/05/16 06:41:47;;;;;;;6.57;1.98;;;;;;;;;;5079544;28;20025;-79
2021/05/16 06:44:13;;;;;;;4.00;1.77;;;;;;;;;;5079923;28;20043;-79
2021/05/16 06:46:39;;;;;;;2.83;1.60;;;;;;;;;;5078603;28;20387;-81
2021/05/16 06:49:05;;;;;;;3.72;1.60;;;;;;;;;;5073982;28;20025;-77
2021/05/16 06:51:31;;;;;;;3.30;1.63;;;;;;;;;;5069539;28;20043;-77
2021/05/16 06:53:57;;;;;;;3.17;1.63;;;;;;;;;;5079235;28;20296;-78
2021/05/16 06:56:23;;;;;;;1.48;1.38;;;;;;;;;;5081289;28;20043;-78
2021/05/16 06:58:49;;;;;;;2.03;1.50;;;;;;;;;;5070801;28;20024;-77
2021/05/16 07:01:15;;;;;;;1.85;1.20;;;;;;;;;;5079039;28;20021;-78
2021/05/16 07:03:42;;;;;;;1.40;1.30;;;;;;;;;;5071789;28;20051;-77
2021/05/16 07:06:08;;;;;;;;;;;;;;;;;;5078700;28;20033;-78
2021/05/16 07:08:34;;;;;;;1.60;1.30;;;;;;;;;;5078499;28;19908;-78
2021/05/16 07:11:00;;;;;;;2.63;1.25;;;;;;;;;;5070907;28;20041;-78
2021/05/16 07:13:26;;;;;;;1.70;1.10;;;;;;;;;;5073427;28;20043;-80
2021/05/16 07:15:52;;;;;;;1.55;1.10;;;;;;;;;;5074885;28;20029;-79
2021/05/16 07:18:18;;;;;;;1.02;0.93;;;;;;;;;;5070411;28;20032;-79
2021/05/16 07:20:44;;;;;;;3.65;1.00;;;;;;;;;;5076813;28;20055;-79
2021/05/16 07:23:10;;;;;;;1.40;1.30;;;;;;;;;;5071295;28;20125;-80
2021/05/16 07:25:36;;;;;;;1.42;1.33;;;;;;;;;;5071482;28;20262;-80
2021/05/16 07:28:02;;;;;;;2.20;0.90;;;;;;;;;;5077352;28;20028;-81
2021/05/16 07:30:28;;;;;;;1.20;1.10;;;;;;;;;;5076883;28;20154;-79
2021/05/16 07:32:54;;;;;;;1.65;1.05;;;;;;;;;;5076713;28;20031;-80
2021/05/16 07:35:20;;;;;;;2.43;1.10;;;;;;;;;;5088621;28;20024;-78
2021/05/16 07:37:46;;;;;;;1.10;1.10;;;;;;;;;;5074886;28;20529;-81
2021/05/16 07:40:13;;;;;;;1.30;0.97;;;;;;;;;;5070566;28;20036;-80
2021/05/16 07:42:39;;;;;;;1.10;1.00;;;;;;;;;;5070446;28;20107;-79
2021/05/16 07:45:06;;;;;;;0.98;0.98;;;;;;;;;;5082345;28;20035;-79
2021/05/16 07:47:32;;;;;;;1.00;0.90;;;;;;;;;;5078851;28;20049;-79
2021/05/16 07:49:58;;;;;;;2.55;1.10;;;;;;;;;;5073473;28;20036;-80
2021/05/16 07:52:24;;;;;;;1.15;1.00;;;;;;;;;;5077729;28;20030;-83
2021/05/16 07:54:50;;;;;;;1.02;0.80;;;;;;;;;;5070815;28;20036;-78
2021/05/16 07:57:16;;;;;;;1.17;1.08;;;;;;;;;;5077760;28;20047;-78
2021/05/16 07:59:42;;;;;;;1.20;1.08;;;;;;;;;;5070512;28;20063;-78
2021/05/16 08:02:08;;;;;;;2.53;1.00;;;;;;;;;;5074641;28;20039;-78
2021/05/16 08:04:34;;;;;;;4.13;1.10;;;;;;;;;;5080262;28;20521;-79
2021/05/16 08:07:00;;;;;;;2.15;0.95;;;;;;;;;;5080365;28;20055;-79
2021/05/16 08:09:26;;;;;;;9.50;2.00;;;;;;;;;;5071989;28;20417;-78
2021/05/16 08:11:53;;;;;;;3.90;1.30;;;;;;;;;;5073397;28;20378;-77
2021/05/16 08:14:18;;;;;;;;;;;;;;;;;;5081027;28;20418;-78
2021/05/16 08:16:44;;;;;;;1.20;1.08;;;;;;;;;;5079028;28;20053;-78
2021/05/16 08:19:10;;;;;;;1.15;1.05;;;;;;;;;;5074108;28;20068;-78
2021/05/16 08:21:37;;;;;;;1.20;1.17;;;;;;;;;;5089134;28;20044;-78
2021/05/16 08:24:05;;;;;;;3.83;1.20;;;;;;;;;;5081097;28;20036;-78
2021/05/16 08:26:31;;;;;;;1.60;1.10;;;;;;;;;;5088085;28;20020;-79
2021/05/16 08:28:57;;;;;;;3.28;1.42;;;;;;;;;;5079678;28;20040;-78
2021/05/16 08:31:23;;;;;;;1.77;1.17;;;;;;;;;;5080621;28;20043;-77
2021/05/16 08:33:49;;;;;;;1.17;1.00;;;;;;;;;;5085261;28;20047;-77
2021/05/16 08:36:15;;;;;;;2.88;1.27;;;;;;;;;;5080540;28;20024;-77
2021/05/16 08:38:41;;;;;;;1.23;1.00;;;;;;;;;;5087538;28;20051;-77
2021/05/16 08:41:07;;;;;;;1.83;1.00;;;;;;;;;;5077539;28;20070;-77
2021/05/16 08:43:33;;;;;;;2.83;1.10;;;;;;;;;;5077904;28;20070;-77
2021/05/16 08:45:59;;;;;;;1.70;1.15;;;;;;;;;;5075296;28;20054;-77
2021/05/16 08:48:29;;;;;;;0.90;0.90;;;;;;;;;;5069380;28;20079;-80
2021/05/16 08:50:56;;;;;;;1.58;1.15;;;;;;;;;;5076510;28;20040;-76
2021/05/16 08:53:22;;;;;;;1.60;1.10;;;;;;;;;;5083536;28;20032;-78
2021/05/16 08:55:48;;;;;;;1.05;1.00;;;;;;;;;;5086655;28;20763;-78
2021/05/16 08:58:14;;;;;;;0.85;0.85;;;;;;;;;;5084492;28;20111;-79
2021/05/16 09:00:44;;;;;;;1.80;0.77;;;;;;;;;;5080438;28;20483;-79
2021/05/16 09:03:14;;;;;;;1.73;1.00;;;;;;;;;;5077326;28;20033;-77
2021/05/16 09:05:41;;;;;;;1.63;1.08;;;;;;;;;;5082670;28;20142;-77
2021/05/16 09:08:10;;;;;;;1.00;1.00;;;;;;;;;;5078443;28;20021;-77
2021/05/16 09:10:36;;;;;;;0.93;0.90;;;;;;;;;;5078153;28;20064;-78
2021/05/16 09:13:02;;;;;;;;;;;;;;;;;;5082448;28;20039;-77
2021/05/16 09:15:30;;;;;;;1.00;1.00;;;;;;;;;;5086023;28;19912;-76
2021/05/16 09:17:56;;;;;;;1.00;1.00;;;;;;;;;;5085095;28;20048;-77
2021/05/16 09:20:24;;;;;;;2.77;1.20;;;;;;;;;;5091863;28;20032;-75
2021/05/16 09:22:51;;;;;;;1.23;1.10;;;;;;;;;;5080963;28;20635;-76
2021/05/16 09:25:19;;;;;;;2.35;0.98;;;;;;;;;;5089401;28;20051;-76
2021/05/16 09:27:46;;;;;;;1.25;1.13;;;;;;;;;;5086575;28;20024;-75
2021/05/16 09:30:15;;;;;;;0.90;0.90;;;;;;;;;;5087234;28;20044;-75
2021/05/16 09:32:47;;;;;;;1.48;0.90;;;;;;;;;;5077846;28;20036;-78
2021/05/16 09:35:13;;;;;;;1.52;1.10;;;;;;;;;;5075197;28;20585;-79
2021/05/16 09:38:15;;;;;;;1.10;1.10;;;;;;;;;;5074247;28;20410;-80
2021/05/16 09:40:43;;;;;;;1.42;1.27;;;;;;;;;;5083011;28;20039;-81
2021/05/16 09:43:09;;;;;;;1.00;1.00;;;;;;;;;;5084142;28;20043;-81
2021/05/16 09:45:49;;;;;;;1.27;1.17;;;;;;;;;;5078151;28;20056;-80
2021/05/16 09:48:18;;;;;;;1.17;1.00;;;;;;;;;;5078312;28;20131;-78
2021/05/16 09:50:44;;;;;;;1.20;1.20;;;;;;;;;;5085751;28;20060;-79
2021/05/16 09:53:10;;;;;;;1.30;1.20;;;;;;;;;;5082887;28;20505;-79
2021/05/16 09:55:37;;;;;;;1.13;1.05;;;;;;;;;;5083810;28;20024;-78
2021/05/16 09:58:04;;;;;;;1.08;1.08;;;;;;;;;;5079279;28;20020;-80
2021/05/16 10:00:30;;;;;;;1.17;1.17;;;;;;;;;;5080264;28;20032;-81
2021/05/16 10:02:56;;;;;;;1.17;1.08;;;;;;;;;;5072757;28;20096;-80
2021/05/16 10:05:22;;;;;;;1.27;1.20;;;;;;;;;;5077603;28;20050;-81
2021/05/16 10:07:48;;;;;;;1.30;1.20;;;;;;;;;;5077604;28;20720;-80
2021/05/16 10:10:14;;;;;;;1.08;0.98;;;;;;;;;;5081646;28;20039;-79
2021/05/16 10:12:41;;;;;;;1.27;1.17;;;;;;;;;;5079589;28;20021;-79
2021/05/16 10:15:09;;;;;;;1.60;0.80;;;;;;;;;;5071940;28;20106;-80
2021/05/16 10:17:36;;;;;;;1.30;0.98;;;;;;;;;;5081067;28;20039;-79
2021/05/16 10:20:15;;;;;;;1.50;1.30;;;;;;;;;;5076345;28;20027;-80
2021/05/16 10:22:42;;;;;;;1.15;1.05;;;;;;;;;;5081340;28;20028;-79
2021/05/16 10:25:08;;;;;;;1.42;1.25;;;;;;;;;;5080422;28;20126;-79
2021/05/16 10:27:44;;;;;;;1.20;1.10;;;;;;;;;;5090303;28;20478;-82
2021/05/16 10:30:15;;;;;;;1.15;1.02;;;;;;;;;;5080667;28;20058;-81
2021/05/16 10:32:47;;;;;;;1.17;1.08;;;;;;;;;;5083876;28;20068;-79
2021/05/16 10:35:13;;;;;;;1.25;1.20;;;;;;;;;;5080275;28;20036;-81
2021/05/16 10:37:47;;;;;;;1.08;1.08;;;;;;;;;;5076523;28;20017;-81
2021/05/16 10:40:13;;;;;;;2.33;1.48;;;;;;;;;;5077910;28;20055;-81
2021/05/16 10:42:40;;;;;;;1.30;1.20;;;;;;;;;;5087658;28;20016;-81
2021/05/16 10:45:06;;;;;;;1.40;1.30;;;;;;;;;;5089920;28;20048;-80
2021/05/16 10:47:42;;;;;;;1.95;1.25;;;;;;;;;;5078048;28;20041;-81
2021/05/16 10:50:08;;;;;;;2.20;1.40;;;;;;;;;;5077316;28;20040;-81
2021/05/16 10:52:34;;;;;;;1.55;1.13;;;;;;;;;;5076555;28;20246;-81
2021/05/16 10:55:01;;;;;;;2.43;1.40;;;;;;;;;;5082187;28;20495;-80
2021/05/16 10:57:36;;;;;;;1.30;1.20;;;;;;;;;;5073610;28;20043;-81
2021/05/16 11:00:26;;;;;;;3.20;1.20;;;;;;;;;;5084535;28;20020;-82
2021/05/16 11:02:59;;;;;;;2.63;1.65;;;;;;;;;;5075605;28;20025;-82
2021/05/16 11:05:44;;;;;;;2.25;1.27;;;;;;;;;;5078454;28;20035;-81
2021/05/16 11:08:11;;;;;;;2.00;1.50;;;;;;;;;;5073866;28;20056;-81
2021/05/16 11:10:40;;;;;;;1.52;1.20;;;;;;;;;;5081578;28;20036;-84
2021/05/16 11:13:16;;;;;;;1.98;1.20;;;;;;;;;;5090842;28;20027;-84
2021/05/16 11:15:46;;;;;;;2.58;1.50;;;;;;;;;;5085656;28;20037;-79
2021/05/16 11:18:17;;;;;;;2.05;1.30;;;;;;;;;;5084692;28;20107;-80
2021/05/16 11:20:43;;;;;;;2.72;1.33;;;;;;;;;;5079954;28;20069;-82
2021/05/16 11:23:09;;;;;;;1.67;1.43;;;;;;;;;;5077130;28;20417;-81
2021/05/16 11:25:35;;;;;;;2.40;1.30;;;;;;;;;;5084551;28;20270;-82
2021/05/16 11:28:10;;;;;;;5.33;1.80;;;;;;;;;;5079597;28;20082;-84
2021/05/16 11:30:36;;;;;;;4.80;1.38;;;;;;;;;;5081884;28;20810;-87
2021/05/16 11:33:02;;;;;;;3.85;1.58;;;;;;;;;;5074190;28;20028;-87
2021/05/16 11:35:28;;;;;;;4.53;1.80;;;;;;;;;;5069219;28;20032;-86
2021/05/16 11:37:58;;;;;;;3.22;1.42;;;;;;;;;;5070003;28;20529;-87
2021/05/16 11:40:26;;;;;;;2.20;1.55;;;;;;;;;;5069608;28;20040;-86
2021/05/16 11:42:56;;;;;;;2.65;1.35;;;;;;;;;;5081264;28;20213;-87
2021/05/16 11:45:27;;;;;;;2.63;1.50;;;;;;;;;;5090807;28;20504;-87
2021/05/16 11:47:53;;;;;;;1.55;1.20;;;;;;;;;;5070545;28;20428;-86
2021/05/16 11:50:19;;;;;;;2.00;1.40;;;;;;;;;;5070619;28;20099;-85
2021/05/16 11:52:46;;;;;;;2.30;1.58;;;;;;;;;;5069947;28;20133;-85
2021/05/16 11:55:12;;;;;;;2.17;1.42;;;;;;;;;;5070316;28;20032;-86
2021/05/16 11:57:38;;;;;;;;;;;;;;;;;;5070541;28;20037;-87
2021/05/16 12:00:08;;;;;;;1.88;1.45;;;;;;;;;;5070774;28;19923;-87
2021/05/16 12:02:35;;;;;;;1.40;1.30;;;;;;;;;;5069401;28;20068;-87
2021/05/16 12:05:01;;;;;;;;;;;;;;;;;;5070990;28;20418;-87
2021/05/16 12:07:27;;;;;;;2.17;1.60;;;;;;;;;;5069741;28;19914;-86
2021/05/16 12:09:54;;;;;;;2.55;1.50;;;;;;;;;;5069877;28;20040;-87
2021/05/16 12:12:20;;;;;;;1.65;1.17;;;;;;;;;;5070399;28;20471;-88
2021/05/16 12:14:46;;;;;;;1.50;1.40;;;;;;;;;;5070130;28;20030;-87
2021/05/16 12:17:14;;;;;;;1.77;1.35;;;;;;;;;;5070413;28;20028;-86
2021/05/16 12:19:40;;;;;;;1.58;1.48;;;;;;;;;;5077625;28;20047;-85
2021/05/16 12:22:07;;;;;;;1.25;1.15;;;;;;;;;;5081849;28;20103;-87
2021/05/16 12:24:34;;;;;;;1.48;1.35;;;;;;;;;;5083197;28;20466;-87
2021/05/16 12:27:00;;;;;;;1.65;1.40;;;;;;;;;;5085144;28;20130;-86
2021/05/16 12:29:27;;;;;;;1.77;1.38;;;;;;;;;;5070043;28;20044;-86
2021/05/16 12:31:53;;;;;;;1.90;1.20;;;;;;;;;;5069732;28;20055;-85
2021/05/16 12:34:23;;;;;;;1.23;1.13;;;;;;;;;;5070072;28;20124;-86
2021/05/16 12:36:51;;;;;;;1.88;1.52;;;;;;;;;;5069668;28;20074;-84
2021/05/16 12:39:35;;;;;;;1.25;1.17;;;;;;;;;;5070016;28;20048;-86
2021/05/16 12:42:02;;;;;;;1.48;1.35;;;;;;;;;;5079876;28;20545;-86
2021/05/16 12:44:28;;;;;;;1.30;1.20;;;;;;;;;;5083542;28;20119;-86
2021/05/16 12:46:55;;;;;;;1.27;1.17;;;;;;;;;;5078060;28;20187;-86
2021/05/16 12:49:23;;;;;;;1.58;1.25;;;;;;;;;;5076714;28;20040;-86
2021/05/16 12:52:03;;;;;;;1.50;1.40;;;;;;;;;;5070336;28;20029;-85
2021/05/16 12:54:30;;;;;;;1.90;1.55;;;;;;;;;;5069740;28;20127;-85
2021/05/16 12:56:57;;;;;;;1.65;1.15;;;;;;;;;;5074767;28;20599;-86
2021/05/16 12:59:27;;;;;;;2.17;1.35;;;;;;;;;;5069743;28;20083;-87
2021/05/16 13:02:04;;;;;;;1.30;1.20;;;;;;;;;;5069882;28;20406;-86
2021/05/16 13:04:30;;;;;;;1.55;1.38;;;;;;;;;;5070146;28;20025;-86
2021/05/16 13:06:56;;;;;;;1.40;1.30;;;;;;;;;;5070140;28;20370;-87
2021/05/16 13:09:28;;;;;;;1.35;1.20;;;;;;;;;;5069212;28;20067;-86
2021/05/16 13:11:56;;;;;;;1.20;1.10;;;;;;;;;;5070000;28;20043;-87
2021/05/16 13:14:43;;;;;;;1.33;1.23;;;;;;;;;;5069614;28;20025;-86
2021/05/16 13:17:10;;;;;;;1.48;1.13;;;;;;;;;;5068258;28;20032;-86
2021/05/16 13:19:40;;;;;;;1.48;1.38;;;;;;;;;;5069464;28;20071;-86
2021/05/16 13:22:24;;;;;;;1.75;1.30;;;;;;;;;;5069993;28;20016;-87
2021/05/16 13:24:50;;;;;;;1.45;1.10;;;;;;;;;;5069804;28;20391;-87
2021/05/16 13:27:16;;;;;;;1.15;1.08;;;;;;;;;;5069516;28;20021;-87
2021/05/16 13:29:48;;;;;;;1.30;1.20;;;;;;;;;;5079137;28;20269;-86
2021/05/16 13:32:18;;;;;;;1.38;1.27;;;;;;;;;;5083408;28;20060;-87
2021/05/16 13:34:49;;;;;;;1.33;1.10;;;;;;;;;;5071456;28;20028;-87
2021/05/16 13:37:15;;;;;;;1.33;1.23;;;;;;;;;;5081069;28;20063;-85
2021/05/16 13:39:41;;;;;;;1.17;1.08;;;;;;;;;;5083256;28;20062;-85
2021/05/16 13:42:08;;;;;;;1.25;1.15;;;;;;;;;;5089208;28;20016;-86
2021/05/16 13:44:34;;;;;;;1.20;1.20;;;;;;;;;;5074599;28;20102;-86
2021/05/16 13:47:00;;;;;;;1.30;1.10;;;;;;;;;;5073022;28;20165;-86
2021/05/16 13:49:27;;;;;;;1.30;1.20;;;;;;;;;;5077685;27;20249;-86
2021/05/16 13:51:53;;;;;;;1.60;1.10;;;;;;;;;;5092555;28;20028;-86
2021/05/16 13:54:25;;;;;;;1.65;1.27;;;;;;;;;;5093039;28;20127;-86
2021/05/16 13:56:51;;;;;;;1.52;1.13;;;;;;;;;;5082511;28;20108;-87
2021/05/16 13:59:17;;;;;;;1.38;1.27;;;;;;;;;;5092178;28;20036;-86
2021/05/16 14:01:43;;;;;;;1.37;1.13;;;;;;;;;;5086864;28;20542;-87
2021/05/16 14:04:10;;;;;;;1.20;1.10;;;;;;;;;;5089240;28;20047;-86
2021/05/16 14:06:36;;;;;;;;;;;;;;;;;;5086069;28;20110;-87
2021/05/16 14:09:03;;;;;;;1.50;1.17;;;;;;;;;;5083976;28;20306;-86
2021/05/16 14:11:29;;;;;;;0.93;0.93;;;;;;;;;;5072478;28;20442;-85
2021/05/16 14:13:55;;;;;;;1.35;1.20;;;;;;;;;;5072919;28;20039;-86
2021/05/16 14:16:21;;;;;;;1.20;1.20;;;;;;;;;;5075264;28;20062;-86
2021/05/16 14:18:47;;;;;;;1.10;1.10;;;;;;;;;;5078814;28;20063;-83
2021/05/16 14:21:13;;;;;;;2.17;1.40;;;;;;;;;;5078955;28;20045;-84
2021/05/16 14:23:39;;;;;;;1.52;1.27;;;;;;;;;;5085660;28;20070;-84
2021/05/16 14:26:05;;;;;;;3.10;1.27;;;;;;;;;;5086911;28;20102;-80
2021/05/16 14:28:31;;;;;;;5.63;1.65;;;;;;;;;;5076422;28;20029;-83
2021/05/16 14:30:57;;;;;;;2.88;1.30;;;;;;;;;;5071347;28;20037;-85
2021/05/16 14:33:23;;;;;;;1.52;1.30;;;;;;;;;;5081320;28;20513;-84
2021/05/16 14:35:50;;;;;;;2.42;1.30;;;;;;;;;;5101076;28;20099;-85
2021/05/16 14:38:16;;;;;;;;;;;;;;;;;;5084045;28;20043;-84
2021/05/16 14:40:42;;;;;;;2.30;1.08;;;;;;;;;;5079283;28;20010;-83
2021/05/16 14:43:09;;;;;;;1.10;1.02;;;;;;;;;;5077223;28;20861;-85
2021/05/16 14:45:35;;;;;;;1.10;1.00;;;;;;;;;;5080781;28;20131;-85